Archival Weather

Snohomish County (Paine Fld)

Everett, Washington (KPAE)

Report from: Monday, November 20, 2023 1:53 AM PST
Current time: Sunday, February 25, 2024 2:29 PM PST

Current weather – Weather history – Daily summaries
Weather forecast

Temperature4.4°C (39.9°F)
Wind chill2.1°C (35.8°F)
Dew point2.2°C (36.0°F)
Winds 5 kts (2.6 m/s, 5.8 mph) East (100°)
Visibility10 mi. (16.1 km)
Clouds Few clouds 3,400 ft. (1,036 m)
Altimeter30.54 in.Hg (1034 mB)
Relative humidity86 %
Density altitude-1,898 ft. (-579 m)
Sea-level pressure103.5 kPa (1035 mB, 30.55 in.Hg)
Remarks Fully automated report
Automated weather observing station with precipitation discriminator
Flight conditions Visual Meteorological Conditions
Raw dataKPAE 200953Z AUTO 10005KT 10SM FEW034 04/02 A3054 RMK AO2 SLP346 T00440022
An error has occurred. This application may no longer respond until reloaded. Reload 🗙